sensor_id;sensor_type;location;lat;lon;timestamp;pressure;altitude;pressure_sealevel;temperature;humidity
37304;BME280;23188;51.188;16.374;2023-05-08T00:03:26;101358.80;;;6.68;89.23
37304;BME280;23188;51.188;16.374;2023-05-08T00:07:29;101353.58;;;6.63;89.28
37304;BME280;23188;51.188;16.374;2023-05-08T00:11:37;101352.52;;;6.56;89.35
37304;BME280;23188;51.188;16.374;2023-05-08T00:15:39;101353.84;;;6.46;89.56
37304;BME280;23188;51.188;16.374;2023-05-08T00:19:43;101353.88;;;6.34;89.98
37304;BME280;23188;51.188;16.374;2023-05-08T00:23:45;101352.30;;;6.22;90.47
37304;BME280;23188;51.188;16.374;2023-05-08T00:27:47;101350.59;;;6.10;91.12
37304;BME280;23188;51.188;16.374;2023-05-08T00:31:49;101350.57;;;6.02;91.74
37304;BME280;23188;51.188;16.374;2023-05-08T00:35:57;101349.23;;;5.96;92.23
37304;BME280;23188;51.188;16.374;2023-05-08T00:39:59;101353.90;;;5.90;92.97
37304;BME280;23188;51.188;16.374;2023-05-08T00:44:01;101351.99;;;5.85;93.20
37304;BME280;23188;51.188;16.374;2023-05-08T00:48:04;101348.09;;;5.82;93.52
37304;BME280;23188;51.188;16.374;2023-05-08T00:52:07;101350.52;;;5.79;93.91
37304;BME280;23188;51.188;16.374;2023-05-08T00:56:13;101351.64;;;5.77;94.34
37304;BME280;23188;51.188;16.374;2023-05-08T01:00:18;101353.52;;;5.71;94.42
37304;BME280;23188;51.188;16.374;2023-05-08T01:04:23;101356.30;;;5.63;94.47
37304;BME280;23188;51.188;16.374;2023-05-08T01:08:26;101355.09;;;5.55;95.16
37304;BME280;23188;51.188;16.374;2023-05-08T01:13:00;101351.39;;;5.51;95.77
37304;BME280;23188;51.188;16.374;2023-05-08T01:21:33;101354.14;;;5.48;96.46
37304;BME280;23188;51.188;16.374;2023-05-08T01:35:02;101364.23;;;5.39;97.43
37304;BME280;23188;51.188;16.374;2023-05-08T01:44:05;101367.77;;;5.30;98.15
37304;BME280;23188;51.188;16.374;2023-05-08T01:48:18;101366.94;;;5.24;98.46
37304;BME280;23188;51.188;16.374;2023-05-08T01:52:32;101369.71;;;5.21;99.18
37304;BME280;23188;51.188;16.374;2023-05-08T01:56:36;101376.42;;;5.16;99.71
37304;BME280;23188;51.188;16.374;2023-05-08T02:00:40;101383.48;;;5.11;99.95
37304;BME280;23188;51.188;16.374;2023-05-08T02:04:46;101383.86;;;5.06;99.66
37304;BME280;23188;51.188;16.374;2023-05-08T02:13:36;101389.11;;;4.98;99.93
37304;BME280;23188;51.188;16.374;2023-05-08T02:17:40;101395.73;;;4.95;99.90
37304;BME280;23188;51.188;16.374;2023-05-08T02:21:44;101395.84;;;4.92;99.82
37304;BME280;23188;51.188;16.374;2023-05-08T02:26:07;101395.77;;;4.89;100.00
37304;BME280;23188;51.188;16.374;2023-05-08T02:30:25;101401.20;;;4.90;99.95
37304;BME280;23188;51.188;16.374;2023-05-08T02:34:31;101400.85;;;4.85;99.46
37304;BME280;23188;51.188;16.374;2023-05-08T02:38:34;101397.56;;;4.80;99.59
37304;BME280;23188;51.188;16.374;2023-05-08T02:42:38;101402.83;;;4.71;99.42
37304;BME280;23188;51.188;16.374;2023-05-08T02:46:46;101403.36;;;4.62;99.67
37304;BME280;23188;51.188;16.374;2023-05-08T02:50:54;101404.02;;;4.58;99.54
37304;BME280;23188;51.188;16.374;2023-05-08T02:55:41;101411.02;;;4.54;99.39
37304;BME280;23188;51.188;16.374;2023-05-08T03:00:02;101414.05;;;4.44;100.00
37304;BME280;23188;51.188;16.374;2023-05-08T03:04:07;101419.20;;;4.38;100.00
37304;BME280;23188;51.188;16.374;2023-05-08T03:08:19;101417.01;;;4.31;100.00
37304;BME280;23188;51.188;16.374;2023-05-08T03:12:27;101417.87;;;4.26;100.00
37304;BME280;23188;51.188;16.374;2023-05-08T03:16:33;101417.45;;;4.23;100.00
37304;BME280;23188;51.188;16.374;2023-05-08T03:20:40;101415.86;;;4.23;100.00
37304;BME280;23188;51.188;16.374;2023-05-08T03:24:45;101414.46;;;4.24;100.00
37304;BME280;23188;51.188;16.374;2023-05-08T03:28:49;101416.87;;;4.25;100.00
37304;BME280;23188;51.188;16.374;2023-05-08T03:32:52;101421.86;;;4.27;100.00
37304;BME280;23188;51.188;16.374;2023-05-08T03:36:55;101420.95;;;4.33;100.00
37304;BME280;23188;51.188;16.374;2023-05-08T03:40:58;101422.24;;;4.41;100.00
37304;BME280;23188;51.188;16.374;2023-05-08T03:45:02;101423.48;;;4.51;100.00
37304;BME280;23188;51.188;16.374;2023-05-08T03:49:07;101423.52;;;4.63;100.00
37304;BME280;23188;51.188;16.374;2023-05-08T03:53:10;101423.87;;;4.72;100.00
37304;BME280;23188;51.188;16.374;2023-05-08T03:57:14;101428.86;;;4.89;100.00
37304;BME280;23188;51.188;16.374;2023-05-08T04:01:22;101429.95;;;5.05;100.00
37304;BME280;23188;51.188;16.374;2023-05-08T04:05:50;101436.05;;;5.16;100.00
37304;BME280;23188;51.188;16.374;2023-05-08T04:09:58;101432.79;;;5.31;100.00
37304;BME280;23188;51.188;16.374;2023-05-08T04:14:03;101437.86;;;5.70;100.00
37304;BME280;23188;51.188;16.374;2023-05-08T04:18:09;101436.98;;;6.77;100.00
37304;BME280;23188;51.188;16.374;2023-05-08T04:22:13;101442.98;;;8.19;100.00
37304;BME280;23188;51.188;16.374;2023-05-08T04:26:18;101438.80;;;9.40;93.14
37304;BME280;23188;51.188;16.374;2023-05-08T04:30:21;101445.56;;;10.17;83.83
37304;BME280;23188;51.188;16.374;2023-05-08T04:34:23;101444.70;;;11.16;80.54
37304;BME280;23188;51.188;16.374;2023-05-08T04:38:25;101449.05;;;11.95;74.98
37304;BME280;23188;51.188;16.374;2023-05-08T04:42:26;101453.60;;;12.55;72.56
37304;BME280;23188;51.188;16.374;2023-05-08T04:46:28;101451.56;;;13.01;69.36
37304;BME280;23188;51.188;16.374;2023-05-08T04:50:30;101454.23;;;13.16;67.55
37304;BME280;23188;51.188;16.374;2023-05-08T04:54:32;101464.39;;;13.03;66.77
37304;BME280;23188;51.188;16.374;2023-05-08T04:58:34;101469.16;;;12.81;66.91
37304;BME280;23188;51.188;16.374;2023-05-08T05:02:37;101471.17;;;12.50;67.41
37304;BME280;23188;51.188;16.374;2023-05-08T05:06:39;101473.66;;;12.33;68.23
37304;BME280;23188;51.188;16.374;2023-05-08T05:10:41;101476.06;;;12.21;69.30
37304;BME280;23188;51.188;16.374;2023-05-08T05:14:43;101482.80;;;12.22;69.65
37304;BME280;23188;51.188;16.374;2023-05-08T05:18:45;101481.73;;;12.22;69.32
37304;BME280;23188;51.188;16.374;2023-05-08T05:22:46;101484.70;;;12.09;69.73
37304;BME280;23188;51.188;16.374;2023-05-08T05:26:49;101488.23;;;12.07;70.09
37304;BME280;23188;51.188;16.374;2023-05-08T05:30:52;101489.80;;;11.91;70.48
37304;BME280;23188;51.188;16.374;2023-05-08T05:34:54;101493.22;;;11.83;70.96
37304;BME280;23188;51.188;16.374;2023-05-08T05:38:57;101493.91;;;11.81;72.71
37304;BME280;23188;51.188;16.374;2023-05-08T05:42:59;101493.83;;;11.79;71.21
37304;BME280;23188;51.188;16.374;2023-05-08T05:47:02;101495.38;;;11.74;72.14
37304;BME280;23188;51.188;16.374;2023-05-08T05:51:05;101500.02;;;11.82;72.26
37304;BME280;23188;51.188;16.374;2023-05-08T05:55:08;101501.90;;;11.73;71.24
37304;BME280;23188;51.188;16.374;2023-05-08T05:59:10;101502.27;;;11.64;72.47
37304;BME280;23188;51.188;16.374;2023-05-08T06:03:14;101504.05;;;11.64;73.00
37304;BME280;23188;51.188;16.374;2023-05-08T06:07:16;101510.24;;;11.76;72.84
37304;BME280;23188;51.188;16.374;2023-05-08T06:11:18;101509.81;;;11.82;72.36
37304;BME280;23188;51.188;16.374;2023-05-08T06:15:20;101514.45;;;11.71;71.84
37304;BME280;23188;51.188;16.374;2023-05-08T06:19:22;101520.48;;;11.66;72.28
37304;BME280;23188;51.188;16.374;2023-05-08T06:23:25;101521.91;;;11.74;73.40
37304;BME280;23188;51.188;16.374;2023-05-08T06:27:27;101522.79;;;11.74;71.73
37304;BME280;23188;51.188;16.374;2023-05-08T06:31:29;101522.48;;;11.73;70.98
37304;BME280;23188;51.188;16.374;2023-05-08T06:35:31;101520.83;;;11.82;70.84
37304;BME280;23188;51.188;16.374;2023-05-08T06:39:33;101517.54;;;12.08;70.42
37304;BME280;23188;51.188;16.374;2023-05-08T06:43:35;101518.88;;;12.25;70.06
37304;BME280;23188;51.188;16.374;2023-05-08T06:47:37;101524.88;;;12.35;69.71
37304;BME280;23188;51.188;16.374;2023-05-08T06:51:38;101525.80;;;12.30;70.31
37304;BME280;23188;51.188;16.374;2023-05-08T06:55:42;101524.23;;;12.58;69.82
37304;BME280;23188;51.188;16.374;2023-05-08T06:59:44;101527.17;;;12.64;68.71
37304;BME280;23188;51.188;16.374;2023-05-08T07:03:46;101530.31;;;12.62;67.54
37304;BME280;23188;51.188;16.374;2023-05-08T07:07:48;101530.01;;;12.59;67.56
37304;BME280;23188;51.188;16.374;2023-05-08T07:11:50;101528.50;;;12.65;68.27
37304;BME280;23188;51.188;16.374;2023-05-08T07:15:52;101531.64;;;12.79;67.53
37304;BME280;23188;51.188;16.374;2023-05-08T07:19:53;101529.91;;;12.93;67.12
37304;BME280;23188;51.188;16.374;2023-05-08T07:23:56;101533.26;;;12.81;65.06
37304;BME280;23188;51.188;16.374;2023-05-08T07:27:58;101531.00;;;12.75;66.76
37304;BME280;23188;51.188;16.374;2023-05-08T07:32:06;101530.25;;;12.76;65.67
37304;BME280;23188;51.188;16.374;2023-05-08T07:36:08;101529.98;;;12.78;65.77
37304;BME280;23188;51.188;16.374;2023-05-08T07:40:10;101530.08;;;12.76;64.54
37304;BME280;23188;51.188;16.374;2023-05-08T07:44:12;101529.04;;;12.86;65.85
37304;BME280;23188;51.188;16.374;2023-05-08T07:48:13;101525.45;;;12.93;63.73
37304;BME280;23188;51.188;16.374;2023-05-08T07:52:15;101529.81;;;13.00;63.78
37304;BME280;23188;51.188;16.374;2023-05-08T07:56:17;101524.91;;;12.86;63.69
37304;BME280;23188;51.188;16.374;2023-05-08T08:00:19;101529.67;;;12.94;63.30
37304;BME280;23188;51.188;16.374;2023-05-08T08:04:21;101535.09;;;12.95;63.07
37304;BME280;23188;51.188;16.374;2023-05-08T08:08:24;101526.77;;;13.05;62.95
37304;BME280;23188;51.188;16.374;2023-05-08T08:12:26;101526.11;;;13.17;63.67
37304;BME280;23188;51.188;16.374;2023-05-08T08:16:29;101522.02;;;13.19;63.36
37304;BME280;23188;51.188;16.374;2023-05-08T08:20:34;101520.15;;;13.32;64.14
37304;BME280;23188;51.188;16.374;2023-05-08T08:24:37;101515.33;;;13.52;64.06
37304;BME280;23188;51.188;16.374;2023-05-08T08:28:39;101516.32;;;13.65;63.35
37304;BME280;23188;51.188;16.374;2023-05-08T08:32:40;101517.20;;;13.75;63.55
37304;BME280;23188;51.188;16.374;2023-05-08T08:36:42;101516.50;;;13.77;63.20
37304;BME280;23188;51.188;16.374;2023-05-08T08:40:44;101515.19;;;13.78;61.83
37304;BME280;23188;51.188;16.374;2023-05-08T08:44:46;101518.31;;;13.91;64.20
37304;BME280;23188;51.188;16.374;2023-05-08T08:48:48;101510.79;;;13.84;62.31
37304;BME280;23188;51.188;16.374;2023-05-08T08:53:24;101505.39;;;13.78;60.66
37304;BME280;23188;51.188;16.374;2023-05-08T08:57:27;101504.24;;;13.62;57.20
37304;BME280;23188;51.188;16.374;2023-05-08T09:01:34;101511.17;;;13.41;56.60
37304;BME280;23188;51.188;16.374;2023-05-08T09:05:38;101513.95;;;13.39;58.36
37304;BME280;23188;51.188;16.374;2023-05-08T09:09:41;101514.86;;;13.49;59.63
37304;BME280;23188;51.188;16.374;2023-05-08T09:13:44;101510.95;;;13.47;58.47
37304;BME280;23188;51.188;16.374;2023-05-08T09:17:46;101509.77;;;13.55;58.92
37304;BME280;23188;51.188;16.374;2023-05-08T09:21:49;101504.52;;;13.73;60.74
37304;BME280;23188;51.188;16.374;2023-05-08T09:25:52;101503.23;;;13.76;59.72
37304;BME280;23188;51.188;16.374;2023-05-08T09:30:08;101505.25;;;13.80;60.04
37304;BME280;23188;51.188;16.374;2023-05-08T09:34:22;101510.89;;;13.92;60.20
37304;BME280;23188;51.188;16.374;2023-05-08T09:38:38;101505.46;;;14.05;59.34
37304;BME280;23188;51.188;16.374;2023-05-08T09:42:40;101495.91;;;14.11;57.29
37304;BME280;23188;51.188;16.374;2023-05-08T09:46:42;101498.34;;;14.19;58.46
37304;BME280;23188;51.188;16.374;2023-05-08T09:50:51;101494.05;;;14.05;56.87
37304;BME280;23188;51.188;16.374;2023-05-08T09:55:07;101492.98;;;14.17;58.18
37304;BME280;23188;51.188;16.374;2023-05-08T09:59:24;101492.88;;;14.23;56.72
37304;BME280;23188;51.188;16.374;2023-05-08T10:03:48;101487.41;;;14.29;57.58
37304;BME280;23188;51.188;16.374;2023-05-08T10:07:50;101481.69;;;14.31;58.24
37304;BME280;23188;51.188;16.374;2023-05-08T10:11:52;101481.91;;;14.38;56.99
37304;BME280;23188;51.188;16.374;2023-05-08T10:15:59;101473.20;;;14.44;57.45
37304;BME280;23188;51.188;16.374;2023-05-08T10:20:05;101472.01;;;14.61;57.94
37304;BME280;23188;51.188;16.374;2023-05-08T10:24:09;101467.23;;;14.65;56.44
37304;BME280;23188;51.188;16.374;2023-05-08T10:32:20;101464.34;;;14.78;55.98
37304;BME280;23188;51.188;16.374;2023-05-08T10:36:22;101462.84;;;14.85;56.43
37304;BME280;23188;51.188;16.374;2023-05-08T10:40:25;101462.84;;;14.96;56.49
37304;BME280;23188;51.188;16.374;2023-05-08T10:44:28;101454.75;;;14.99;56.31
37304;BME280;23188;51.188;16.374;2023-05-08T10:48:38;101457.46;;;15.05;56.37
37304;BME280;23188;51.188;16.374;2023-05-08T10:57:11;101443.91;;;15.13;56.85
37304;BME280;23188;51.188;16.374;2023-05-08T11:01:14;101444.06;;;15.05;57.12
37304;BME280;23188;51.188;16.374;2023-05-08T11:05:17;101446.02;;;14.90;57.86
37304;BME280;23188;51.188;16.374;2023-05-08T11:09:21;101440.38;;;15.11;57.67
37304;BME280;23188;51.188;16.374;2023-05-08T11:17:29;101439.39;;;15.20;58.84
37304;BME280;23188;51.188;16.374;2023-05-08T11:21:31;101435.02;;;15.33;58.23
37304;BME280;23188;51.188;16.374;2023-05-08T11:25:43;101438.42;;;15.39;58.40
37304;BME280;23188;51.188;16.374;2023-05-08T11:30:17;101431.20;;;15.29;58.01
37304;BME280;23188;51.188;16.374;2023-05-08T11:34:57;101432.88;;;15.33;60.03
37304;BME280;23188;51.188;16.374;2023-05-08T11:39:05;101430.74;;;15.51;60.22
37304;BME280;23188;51.188;16.374;2023-05-08T11:43:29;101432.71;;;15.81;59.33
37304;BME280;23188;51.188;16.374;2023-05-08T11:51:37;101428.95;;;15.84;58.51
37304;BME280;23188;51.188;16.374;2023-05-08T11:55:39;101430.41;;;15.92;58.73
37304;BME280;23188;51.188;16.374;2023-05-08T11:59:41;101433.40;;;15.84;57.19
37304;BME280;23188;51.188;16.374;2023-05-08T12:03:43;101423.77;;;15.65;57.80
37304;BME280;23188;51.188;16.374;2023-05-08T12:07:45;101424.50;;;15.58;59.24
37304;BME280;23188;51.188;16.374;2023-05-08T12:11:55;101427.29;;;15.71;59.27
37304;BME280;23188;51.188;16.374;2023-05-08T12:15:59;101425.63;;;15.64;59.58
37304;BME280;23188;51.188;16.374;2023-05-08T12:20:14;101429.20;;;15.74;58.45
37304;BME280;23188;51.188;16.374;2023-05-08T12:24:17;101422.54;;;15.96;59.22
37304;BME280;23188;51.188;16.374;2023-05-08T12:28:23;101427.83;;;15.80;58.75
37304;BME280;23188;51.188;16.374;2023-05-08T12:32:24;101423.36;;;15.61;58.18
37304;BME280;23188;51.188;16.374;2023-05-08T12:36:36;101425.58;;;15.62;58.53
37304;BME280;23188;51.188;16.374;2023-05-08T12:40:42;101425.21;;;15.43;59.54
37304;BME280;23188;51.188;16.374;2023-05-08T12:44:51;101423.17;;;15.37;59.51
37304;BME280;23188;51.188;16.374;2023-05-08T12:48:59;101415.66;;;15.38;60.03
37304;BME280;23188;51.188;16.374;2023-05-08T12:53:06;101411.65;;;15.45;62.04
37304;BME280;23188;51.188;16.374;2023-05-08T12:57:17;101411.82;;;15.53;60.90
37304;BME280;23188;51.188;16.374;2023-05-08T13:01:19;101399.80;;;15.75;61.77
37304;BME280;23188;51.188;16.374;2023-05-08T13:05:21;101402.56;;;15.89;60.05
37304;BME280;23188;51.188;16.374;2023-05-08T13:09:24;101400.15;;;15.92;59.40
37304;BME280;23188;51.188;16.374;2023-05-08T13:13:29;101396.89;;;15.99;59.26
37304;BME280;23188;51.188;16.374;2023-05-08T13:17:31;101400.27;;;16.16;60.42
37304;BME280;23188;51.188;16.374;2023-05-08T13:21:33;101391.71;;;16.05;57.46
37304;BME280;23188;51.188;16.374;2023-05-08T13:25:39;101392.27;;;15.99;58.12
37304;BME280;23188;51.188;16.374;2023-05-08T13:29:41;101383.16;;;15.92;57.56
37304;BME280;23188;51.188;16.374;2023-05-08T13:33:42;101384.60;;;15.92;58.80
37304;BME280;23188;51.188;16.374;2023-05-08T13:37:45;101380.88;;;15.98;56.76
37304;BME280;23188;51.188;16.374;2023-05-08T13:41:48;101376.17;;;15.95;56.74
37304;BME280;23188;51.188;16.374;2023-05-08T13:45:50;101376.58;;;16.02;57.75
37304;BME280;23188;51.188;16.374;2023-05-08T13:49:52;101376.13;;;16.03;56.10
37304;BME280;23188;51.188;16.374;2023-05-08T13:53:55;101375.25;;;16.07;55.60
37304;BME280;23188;51.188;16.374;2023-05-08T13:57:58;101370.28;;;16.13;58.41
37304;BME280;23188;51.188;16.374;2023-05-08T14:02:00;101362.92;;;16.17;57.27
37304;BME280;23188;51.188;16.374;2023-05-08T14:06:04;101364.99;;;16.40;57.77
37304;BME280;23188;51.188;16.374;2023-05-08T14:10:06;101361.09;;;16.54;56.58
37304;BME280;23188;51.188;16.374;2023-05-08T14:14:08;101356.71;;;16.55;53.73
37304;BME280;23188;51.188;16.374;2023-05-08T14:18:09;101353.64;;;16.63;55.34
37304;BME280;23188;51.188;16.374;2023-05-08T14:22:12;101345.16;;;16.72;54.10
37304;BME280;23188;51.188;16.374;2023-05-08T14:26:14;101344.46;;;16.74;54.62
37304;BME280;23188;51.188;16.374;2023-05-08T14:30:16;101343.14;;;16.82;55.86
37304;BME280;23188;51.188;16.374;2023-05-08T14:34:19;101348.86;;;17.02;55.37
37304;BME280;23188;51.188;16.374;2023-05-08T14:38:20;101344.14;;;17.01;54.20
37304;BME280;23188;51.188;16.374;2023-05-08T14:42:22;101342.00;;;17.03;53.72
37304;BME280;23188;51.188;16.374;2023-05-08T14:46:24;101344.94;;;17.10;54.66
37304;BME280;23188;51.188;16.374;2023-05-08T14:50:26;101342.52;;;17.15;53.42
37304;BME280;23188;51.188;16.374;2023-05-08T14:54:28;101342.44;;;17.14;54.11
37304;BME280;23188;51.188;16.374;2023-05-08T14:58:30;101342.60;;;17.26;53.66
37304;BME280;23188;51.188;16.374;2023-05-08T15:02:31;101344.86;;;17.20;52.12
37304;BME280;23188;51.188;16.374;2023-05-08T15:06:34;101340.52;;;17.13;51.47
37304;BME280;23188;51.188;16.374;2023-05-08T15:10:36;101333.35;;;17.17;51.53
37304;BME280;23188;51.188;16.374;2023-05-08T15:14:38;101336.02;;;17.15;51.45
37304;BME280;23188;51.188;16.374;2023-05-08T15:18:40;101336.36;;;17.10;51.63
37304;BME280;23188;51.188;16.374;2023-05-08T15:22:42;101329.49;;;17.07;51.74
37304;BME280;23188;51.188;16.374;2023-05-08T15:26:44;101324.45;;;17.01;52.05
37304;BME280;23188;51.188;16.374;2023-05-08T15:30:46;101322.10;;;17.03;51.04
37304;BME280;23188;51.188;16.374;2023-05-08T15:34:47;101324.13;;;17.02;51.92
37304;BME280;23188;51.188;16.374;2023-05-08T15:38:49;101320.17;;;16.96;51.83
37304;BME280;23188;51.188;16.374;2023-05-08T15:42:50;101314.94;;;16.97;52.65
37304;BME280;23188;51.188;16.374;2023-05-08T15:46:52;101317.86;;;16.99;51.29
37304;BME280;23188;51.188;16.374;2023-05-08T15:50:54;101312.12;;;17.03;51.61
37304;BME280;23188;51.188;16.374;2023-05-08T15:54:56;101318.45;;;16.96;51.44
37304;BME280;23188;51.188;16.374;2023-05-08T15:58:57;101313.38;;;16.83;51.10
37304;BME280;23188;51.188;16.374;2023-05-08T16:02:59;101312.34;;;16.84;50.60
37304;BME280;23188;51.188;16.374;2023-05-08T16:07:01;101312.10;;;16.87;50.77
37304;BME280;23188;51.188;16.374;2023-05-08T16:11:03;101306.25;;;16.92;51.94
37304;BME280;23188;51.188;16.374;2023-05-08T16:15:05;101302.80;;;16.93;53.05
37304;BME280;23188;51.188;16.374;2023-05-08T16:19:06;101295.98;;;16.75;51.95
37304;BME280;23188;51.188;16.374;2023-05-08T16:23:08;101291.58;;;16.64;52.34
37304;BME280;23188;51.188;16.374;2023-05-08T16:27:09;101285.86;;;16.54;52.73
37304;BME280;23188;51.188;16.374;2023-05-08T16:31:11;101282.47;;;16.50;52.65
37304;BME280;23188;51.188;16.374;2023-05-08T16:35:13;101282.88;;;16.44;53.19
37304;BME280;23188;51.188;16.374;2023-05-08T16:39:15;101287.41;;;16.43;53.84
37304;BME280;23188;51.188;16.374;2023-05-08T16:43:17;101290.15;;;16.43;53.59
37304;BME280;23188;51.188;16.374;2023-05-08T16:47:18;101291.09;;;16.30;52.54
37304;BME280;23188;51.188;16.374;2023-05-08T16:51:20;101292.45;;;16.23;53.04
37304;BME280;23188;51.188;16.374;2023-05-08T16:55:22;101298.12;;;16.11;54.07
37304;BME280;23188;51.188;16.374;2023-05-08T16:59:23;101295.30;;;16.09;54.60
37304;BME280;23188;51.188;16.374;2023-05-08T17:03:26;101294.88;;;16.03;55.44
37304;BME280;23188;51.188;16.374;2023-05-08T17:07:28;101292.36;;;15.89;55.62
37304;BME280;23188;51.188;16.374;2023-05-08T17:11:29;101285.74;;;15.69;55.10
37304;BME280;23188;51.188;16.374;2023-05-08T17:15:31;101287.90;;;15.52;55.10
37304;BME280;23188;51.188;16.374;2023-05-08T17:19:33;101287.05;;;15.45;56.35
37304;BME280;23188;51.188;16.374;2023-05-08T17:23:35;101286.55;;;15.39;57.97
37304;BME280;23188;51.188;16.374;2023-05-08T17:27:37;101288.02;;;15.30;58.40
37304;BME280;23188;51.188;16.374;2023-05-08T17:31:39;101292.13;;;15.15;59.27
37304;BME280;23188;51.188;16.374;2023-05-08T17:35:41;101289.63;;;14.91;59.52
37304;BME280;23188;51.188;16.374;2023-05-08T17:39:42;101286.60;;;14.72;60.26
37304;BME280;23188;51.188;16.374;2023-05-08T17:43:44;101288.33;;;14.49;61.09
37304;BME280;23188;51.188;16.374;2023-05-08T17:47:47;101285.40;;;14.18;61.96
37304;BME280;23188;51.188;16.374;2023-05-08T17:51:49;101290.69;;;13.99;62.68
37304;BME280;23188;51.188;16.374;2023-05-08T17:55:51;101293.44;;;13.82;63.23
37304;BME280;23188;51.188;16.374;2023-05-08T17:59:54;101295.37;;;13.64;63.92
37304;BME280;23188;51.188;16.374;2023-05-08T18:03:56;101297.97;;;13.42;65.10
37304;BME280;23188;51.188;16.374;2023-05-08T18:07:58;101302.80;;;13.21;66.79
37304;BME280;23188;51.188;16.374;2023-05-08T18:12:00;101307.79;;;13.00;67.46
37304;BME280;23188;51.188;16.374;2023-05-08T18:16:03;101311.52;;;12.78;67.90
37304;BME280;23188;51.188;16.374;2023-05-08T18:20:06;101313.55;;;12.63;68.00
37304;BME280;23188;51.188;16.374;2023-05-08T18:24:08;101316.15;;;12.49;68.02
37304;BME280;23188;51.188;16.374;2023-05-08T18:28:10;101317.60;;;12.36;68.71
37304;BME280;23188;51.188;16.374;2023-05-08T18:32:12;101318.88;;;12.26;68.81
37304;BME280;23188;51.188;16.374;2023-05-08T18:36:15;101320.55;;;12.15;69.06
37304;BME280;23188;51.188;16.374;2023-05-08T18:40:16;101326.94;;;12.00;69.67
37304;BME280;23188;51.188;16.374;2023-05-08T18:44:18;101333.45;;;11.86;69.68
37304;BME280;23188;51.188;16.374;2023-05-08T18:48:20;101340.27;;;11.72;69.55
37304;BME280;23188;51.188;16.374;2023-05-08T18:52:22;101346.52;;;11.68;68.69
37304;BME280;23188;51.188;16.374;2023-05-08T18:56:23;101347.27;;;11.66;69.14
37304;BME280;23188;51.188;16.374;2023-05-08T19:00:25;101352.95;;;11.61;69.90
37304;BME280;23188;51.188;16.374;2023-05-08T19:04:27;101354.54;;;11.48;70.60
37304;BME280;23188;51.188;16.374;2023-05-08T19:08:28;101356.36;;;11.39;70.54
37304;BME280;23188;51.188;16.374;2023-05-08T19:12:30;101362.50;;;11.27;71.29
37304;BME280;23188;51.188;16.374;2023-05-08T19:16:31;101363.36;;;11.11;72.09
37304;BME280;23188;51.188;16.374;2023-05-08T19:20:33;101364.35;;;10.96;72.35
37304;BME280;23188;51.188;16.374;2023-05-08T19:24:35;101362.27;;;10.82;72.76
37304;BME280;23188;51.188;16.374;2023-05-08T19:28:37;101365.64;;;10.74;72.95
37304;BME280;23188;51.188;16.374;2023-05-08T19:32:38;101363.45;;;10.61;73.11
37304;BME280;23188;51.188;16.374;2023-05-08T19:36:40;101363.14;;;10.49;73.35
37304;BME280;23188;51.188;16.374;2023-05-08T19:40:42;101364.55;;;10.43;73.57
37304;BME280;23188;51.188;16.374;2023-05-08T19:44:58;101364.86;;;10.35;73.87
37304;BME280;23188;51.188;16.374;2023-05-08T19:49:02;101365.32;;;10.25;74.29
37304;BME280;23188;51.188;16.374;2023-05-08T19:53:04;101365.84;;;10.14;74.66
37304;BME280;23188;51.188;16.374;2023-05-08T19:57:06;101364.80;;;10.08;74.98
37304;BME280;23188;51.188;16.374;2023-05-08T20:01:08;101363.52;;;10.06;74.98
37304;BME280;23188;51.188;16.374;2023-05-08T20:05:09;101364.40;;;10.00;75.11
37304;BME280;23188;51.188;16.374;2023-05-08T20:09:14;101366.74;;;9.88;75.28
37304;BME280;23188;51.188;16.374;2023-05-08T20:13:16;101369.88;;;9.71;76.05
37304;BME280;23188;51.188;16.374;2023-05-08T20:17:18;101373.84;;;9.55;76.93
37304;BME280;23188;51.188;16.374;2023-05-08T20:21:20;101373.23;;;9.50;77.03
37304;BME280;23188;51.188;16.374;2023-05-08T20:25:21;101376.45;;;9.23;78.98
37304;BME280;23188;51.188;16.374;2023-05-08T20:29:23;101380.80;;;8.90;81.38
37304;BME280;23188;51.188;16.374;2023-05-08T20:33:25;101384.00;;;8.58;83.87
37304;BME280;23188;51.188;16.374;2023-05-08T20:37:26;101386.58;;;8.39;85.41
37304;BME280;23188;51.188;16.374;2023-05-08T20:41:28;101384.75;;;8.31;86.29
37304;BME280;23188;51.188;16.374;2023-05-08T20:45:29;101385.63;;;8.14;87.44
37304;BME280;23188;51.188;16.374;2023-05-08T20:49:30;101386.83;;;8.12;87.69
37304;BME280;23188;51.188;16.374;2023-05-08T20:53:32;101387.99;;;7.97;88.95
37304;BME280;23188;51.188;16.374;2023-05-08T20:57:33;101385.14;;;7.94;89.21
37304;BME280;23188;51.188;16.374;2023-05-08T21:01:35;101389.91;;;7.90;89.66
37304;BME280;23188;51.188;16.374;2023-05-08T21:05:36;101392.59;;;7.83;90.01
37304;BME280;23188;51.188;16.374;2023-05-08T21:09:38;101395.42;;;7.72;90.41
37304;BME280;23188;51.188;16.374;2023-05-08T21:13:40;101392.37;;;7.63;90.89
37304;BME280;23188;51.188;16.374;2023-05-08T21:17:44;101395.17;;;7.53;91.44
37304;BME280;23188;51.188;16.374;2023-05-08T21:21:47;101391.92;;;7.48;91.68
37304;BME280;23188;51.188;16.374;2023-05-08T21:25:49;101390.00;;;7.40;91.72
37304;BME280;23188;51.188;16.374;2023-05-08T21:30:05;101384.95;;;7.36;92.01
37304;BME280;23188;51.188;16.374;2023-05-08T21:34:08;101380.01;;;7.28;92.24
37304;BME280;23188;51.188;16.374;2023-05-08T21:38:11;101377.04;;;7.28;91.72
37304;BME280;23188;51.188;16.374;2023-05-08T21:42:14;101371.60;;;7.38;90.62
37304;BME280;23188;51.188;16.374;2023-05-08T21:46:17;101369.14;;;7.41;90.23